sensor_id;sensor_type;location;lat;lon;timestamp;temperature;humidity
14995;DHT22;7593;49.006;8.372;2022-11-18T00:01:45;8.90;99.90
14995;DHT22;7593;49.006;8.372;2022-11-18T00:04:12;8.90;99.90
14995;DHT22;7593;49.006;8.372;2022-11-18T00:06:40;8.90;99.90
14995;DHT22;7593;49.006;8.372;2022-11-18T00:09:09;8.90;99.90
14995;DHT22;7593;49.006;8.372;2022-11-18T00:11:35;8.90;99.90
14995;DHT22;7593;49.006;8.372;2022-11-18T00:14:22;8.90;99.90
14995;DHT22;7593;49.006;8.372;2022-11-18T00:16:53;9.00;99.90
14995;DHT22;7593;49.006;8.372;2022-11-18T00:19:22;9.00;99.90
14995;DHT22;7593;49.006;8.372;2022-11-18T00:21:49;9.00;99.90
14995;DHT22;7593;49.006;8.372;2022-11-18T00:24:18;9.00;99.90
14995;DHT22;7593;49.006;8.372;2022-11-18T00:26:45;9.00;99.90
14995;DHT22;7593;49.006;8.372;2022-11-18T00:29:12;9.00;99.90
14995;DHT22;7593;49.006;8.372;2022-11-18T00:31:39;9.00;99.90
14995;DHT22;7593;49.006;8.372;2022-11-18T00:34:06;9.10;99.90
14995;DHT22;7593;49.006;8.372;2022-11-18T00:36:33;9.10;99.90
14995;DHT22;7593;49.006;8.372;2022-11-18T00:38:59;9.10;99.90
14995;DHT22;7593;49.006;8.372;2022-11-18T00:41:28;9.10;99.90
14995;DHT22;7593;49.006;8.372;2022-11-18T00:44:15;9.10;99.90
14995;DHT22;7593;49.006;8.372;2022-11-18T00:46:41;9.10;99.90
14995;DHT22;7593;49.006;8.372;2022-11-18T00:49:08;9.10;99.90
14995;DHT22;7593;49.006;8.372;2022-11-18T00:51:35;9.10;99.90
14995;DHT22;7593;49.006;8.372;2022-11-18T00:54:02;9.10;99.90
14995;DHT22;7593;49.006;8.372;2022-11-18T00:56:31;9.10;99.90
14995;DHT22;7593;49.006;8.372;2022-11-18T00:58:58;9.10;99.90
14995;DHT22;7593;49.006;8.372;2022-11-18T01:01:25;9.10;99.90
14995;DHT22;7593;49.006;8.372;2022-11-18T01:03:52;9.20;99.90
14995;DHT22;7593;49.006;8.372;2022-11-18T01:06:19;9.10;99.90
14995;DHT22;7593;49.006;8.372;2022-11-18T01:08:46;9.20;99.90
14995;DHT22;7593;49.006;8.372;2022-11-18T01:11:13;9.20;99.90
14995;DHT22;7593;49.006;8.372;2022-11-18T01:13:58;9.20;99.90
14995;DHT22;7593;49.006;8.372;2022-11-18T01:16:26;9.20;99.90
14995;DHT22;7593;49.006;8.372;2022-11-18T01:18:54;9.20;99.90
14995;DHT22;7593;49.006;8.372;2022-11-18T01:21:21;9.10;99.90
14995;DHT22;7593;49.006;8.372;2022-11-18T01:23:48;9.20;99.90
14995;DHT22;7593;49.006;8.372;2022-11-18T01:26:15;9.20;99.90
14995;DHT22;7593;49.006;8.372;2022-11-18T01:28:42;9.20;99.90
14995;DHT22;7593;49.006;8.372;2022-11-18T01:31:13;9.20;99.90
14995;DHT22;7593;49.006;8.372;2022-11-18T01:33:41;9.20;99.90
14995;DHT22;7593;49.006;8.372;2022-11-18T01:36:14;9.10;99.90
14995;DHT22;7593;49.006;8.372;2022-11-18T01:38:41;9.20;99.90
14995;DHT22;7593;49.006;8.372;2022-11-18T01:41:08;9.10;99.90
14995;DHT22;7593;49.006;8.372;2022-11-18T01:43:50;9.10;99.90
14995;DHT22;7593;49.006;8.372;2022-11-18T01:46:20;9.10;99.90
14995;DHT22;7593;49.006;8.372;2022-11-18T01:48:50;9.10;99.90
14995;DHT22;7593;49.006;8.372;2022-11-18T01:51:21;9.10;99.90
14995;DHT22;7593;49.006;8.372;2022-11-18T01:53:53;9.10;99.90
14995;DHT22;7593;49.006;8.372;2022-11-18T01:56:27;9.10;99.90
14995;DHT22;7593;49.006;8.372;2022-11-18T01:59:00;9.10;99.90
14995;DHT22;7593;49.006;8.372;2022-11-18T02:01:29;9.10;99.90
14995;DHT22;7593;49.006;8.372;2022-11-18T02:03:56;9.10;99.90
14995;DHT22;7593;49.006;8.372;2022-11-18T02:06:23;9.00;99.90
14995;DHT22;7593;49.006;8.372;2022-11-18T02:08:50;9.00;99.90
14995;DHT22;7593;49.006;8.372;2022-11-18T02:11:18;9.00;99.90
14995;DHT22;7593;49.006;8.372;2022-11-18T02:14:03;8.90;99.90
14995;DHT22;7593;49.006;8.372;2022-11-18T02:16:44;8.90;99.90
14995;DHT22;7593;49.006;8.372;2022-11-18T02:19:30;8.90;99.90
14995;DHT22;7593;49.006;8.372;2022-11-18T02:22:12;8.90;99.90
14995;DHT22;7593;49.006;8.372;2022-11-18T02:24:49;8.90;99.90
14995;DHT22;7593;49.006;8.372;2022-11-18T02:30:25;8.90;99.90
14995;DHT22;7593;49.006;8.372;2022-11-18T02:32:55;8.90;99.90
14995;DHT22;7593;49.006;8.372;2022-11-18T02:35:27;8.90;99.90
14995;DHT22;7593;49.006;8.372;2022-11-18T02:37:58;8.90;99.90
14995;DHT22;7593;49.006;8.372;2022-11-18T02:40:29;8.90;99.90
14995;DHT22;7593;49.006;8.372;2022-11-18T02:43:01;8.90;99.90
14995;DHT22;7593;49.006;8.372;2022-11-18T02:45:32;8.90;99.90
14995;DHT22;7593;49.006;8.372;2022-11-18T02:48:02;8.90;99.90
14995;DHT22;7593;49.006;8.372;2022-11-18T02:50:32;8.90;99.90
14995;DHT22;7593;49.006;8.372;2022-11-18T02:53:03;8.90;99.90
14995;DHT22;7593;49.006;8.372;2022-11-18T02:55:32;8.90;99.90
14995;DHT22;7593;49.006;8.372;2022-11-18T02:58:01;8.80;99.90
14995;DHT22;7593;49.006;8.372;2022-11-18T03:00:28;8.80;99.90
14995;DHT22;7593;49.006;8.372;2022-11-18T03:02:57;8.80;99.90
14995;DHT22;7593;49.006;8.372;2022-11-18T03:05:29;8.70;99.90
14995;DHT22;7593;49.006;8.372;2022-11-18T03:08:02;8.70;99.90
14995;DHT22;7593;49.006;8.372;2022-11-18T03:10:36;8.70;99.90
14995;DHT22;7593;49.006;8.372;2022-11-18T03:13:10;8.70;99.90
14995;DHT22;7593;49.006;8.372;2022-11-18T03:15:47;8.70;99.90
14995;DHT22;7593;49.006;8.372;2022-11-18T03:18:23;8.70;99.90
14995;DHT22;7593;49.006;8.372;2022-11-18T03:20:57;8.70;99.90
14995;DHT22;7593;49.006;8.372;2022-11-18T03:23:29;8.60;99.90
14995;DHT22;7593;49.006;8.372;2022-11-18T03:25:59;8.60;99.90
14995;DHT22;7593;49.006;8.372;2022-11-18T03:28:33;8.60;99.90
14995;DHT22;7593;49.006;8.372;2022-11-18T03:31:05;8.50;99.90
14995;DHT22;7593;49.006;8.372;2022-11-18T03:33:39;8.50;99.90
14995;DHT22;7593;49.006;8.372;2022-11-18T03:36:11;8.50;99.90
14995;DHT22;7593;49.006;8.372;2022-11-18T03:38:43;8.50;99.90
14995;DHT22;7593;49.006;8.372;2022-11-18T03:41:11;8.50;99.90
14995;DHT22;7593;49.006;8.372;2022-11-18T03:43:44;8.50;99.90
14995;DHT22;7593;49.006;8.372;2022-11-18T03:46:15;8.50;99.90
14995;DHT22;7593;49.006;8.372;2022-11-18T03:48:48;8.50;99.90
14995;DHT22;7593;49.006;8.372;2022-11-18T03:51:18;8.50;99.90
14995;DHT22;7593;49.006;8.372;2022-11-18T03:53:51;8.50;99.90
14995;DHT22;7593;49.006;8.372;2022-11-18T03:56:22;8.50;99.90
14995;DHT22;7593;49.006;8.372;2022-11-18T03:58:56;8.50;99.90
14995;DHT22;7593;49.006;8.372;2022-11-18T04:01:32;8.50;99.90
14995;DHT22;7593;49.006;8.372;2022-11-18T04:04:01;8.50;99.90
14995;DHT22;7593;49.006;8.372;2022-11-18T04:06:33;8.50;99.90
14995;DHT22;7593;49.006;8.372;2022-11-18T04:09:07;8.50;99.90
14995;DHT22;7593;49.006;8.372;2022-11-18T04:11:41;8.50;99.90
14995;DHT22;7593;49.006;8.372;2022-11-18T04:14:28;8.50;99.90
14995;DHT22;7593;49.006;8.372;2022-11-18T04:16:55;8.50;99.90
14995;DHT22;7593;49.006;8.372;2022-11-18T04:19:23;8.40;99.90
14995;DHT22;7593;49.006;8.372;2022-11-18T04:21:50;8.40;99.90
14995;DHT22;7593;49.006;8.372;2022-11-18T04:24:17;8.40;99.90
14995;DHT22;7593;49.006;8.372;2022-11-18T04:26:44;8.40;99.90
14995;DHT22;7593;49.006;8.372;2022-11-18T04:29:11;8.30;99.90
14995;DHT22;7593;49.006;8.372;2022-11-18T04:31:38;8.30;99.90
14995;DHT22;7593;49.006;8.372;2022-11-18T04:34:05;8.30;99.90
14995;DHT22;7593;49.006;8.372;2022-11-18T04:36:33;8.20;99.90
14995;DHT22;7593;49.006;8.372;2022-11-18T04:39:00;8.30;99.90
14995;DHT22;7593;49.006;8.372;2022-11-18T04:41:26;8.20;99.90
14995;DHT22;7593;49.006;8.372;2022-11-18T04:44:07;8.20;99.90
14995;DHT22;7593;49.006;8.372;2022-11-18T04:46:38;8.20;99.90
14995;DHT22;7593;49.006;8.372;2022-11-18T04:49:05;8.20;99.90
14995;DHT22;7593;49.006;8.372;2022-11-18T04:51:33;8.20;99.90
14995;DHT22;7593;49.006;8.372;2022-11-18T04:54:01;8.20;99.90
14995;DHT22;7593;49.006;8.372;2022-11-18T04:56:28;8.20;99.90
14995;DHT22;7593;49.006;8.372;2022-11-18T04:58:54;8.20;99.90
14995;DHT22;7593;49.006;8.372;2022-11-18T05:01:21;8.20;99.90
14995;DHT22;7593;49.006;8.372;2022-11-18T05:03:48;8.20;99.90
14995;DHT22;7593;49.006;8.372;2022-11-18T05:06:15;8.10;99.90
14995;DHT22;7593;49.006;8.372;2022-11-18T05:08:43;8.10;99.90
14995;DHT22;7593;49.006;8.372;2022-11-18T05:11:10;8.10;99.90
14995;DHT22;7593;49.006;8.372;2022-11-18T05:13:54;8.00;99.90
14995;DHT22;7593;49.006;8.372;2022-11-18T05:16:21;8.00;99.90
14995;DHT22;7593;49.006;8.372;2022-11-18T05:18:48;7.90;99.90
14995;DHT22;7593;49.006;8.372;2022-11-18T05:21:15;7.90;99.90
14995;DHT22;7593;49.006;8.372;2022-11-18T05:23:43;7.90;99.90
14995;DHT22;7593;49.006;8.372;2022-11-18T05:26:10;7.80;99.90
14995;DHT22;7593;49.006;8.372;2022-11-18T05:28:37;7.80;99.90
14995;DHT22;7593;49.006;8.372;2022-11-18T05:31:06;7.70;99.90
14995;DHT22;7593;49.006;8.372;2022-11-18T05:33:33;7.70;99.90
14995;DHT22;7593;49.006;8.372;2022-11-18T05:36:02;7.70;99.90
14995;DHT22;7593;49.006;8.372;2022-11-18T05:38:30;7.60;99.90
14995;DHT22;7593;49.006;8.372;2022-11-18T05:40:59;7.60;99.90
14995;DHT22;7593;49.006;8.372;2022-11-18T05:43:27;7.60;99.90
14995;DHT22;7593;49.006;8.372;2022-11-18T05:45:52;7.60;99.90
14995;DHT22;7593;49.006;8.372;2022-11-18T05:48:19;7.50;99.90
14995;DHT22;7593;49.006;8.372;2022-11-18T05:50:47;7.50;99.90
14995;DHT22;7593;49.006;8.372;2022-11-18T05:53:15;7.50;99.90
14995;DHT22;7593;49.006;8.372;2022-11-18T05:55:46;7.50;99.90
14995;DHT22;7593;49.006;8.372;2022-11-18T05:58:16;7.50;99.90
14995;DHT22;7593;49.006;8.372;2022-11-18T06:00:43;7.40;99.90
14995;DHT22;7593;49.006;8.372;2022-11-18T06:03:14;7.40;99.90
14995;DHT22;7593;49.006;8.372;2022-11-18T06:05:43;7.40;99.90
14995;DHT22;7593;49.006;8.372;2022-11-18T06:08:11;7.40;99.90
14995;DHT22;7593;49.006;8.372;2022-11-18T06:10:42;7.40;99.90
14995;DHT22;7593;49.006;8.372;2022-11-18T06:13:17;7.40;99.90
14995;DHT22;7593;49.006;8.372;2022-11-18T06:15:45;7.40;99.90
14995;DHT22;7593;49.006;8.372;2022-11-18T06:18:17;7.40;99.90
14995;DHT22;7593;49.006;8.372;2022-11-18T06:20:46;7.40;99.90
14995;DHT22;7593;49.006;8.372;2022-11-18T06:23:13;7.40;99.90
14995;DHT22;7593;49.006;8.372;2022-11-18T06:25:40;7.40;99.90
14995;DHT22;7593;49.006;8.372;2022-11-18T06:28:08;7.40;99.90
14995;DHT22;7593;49.006;8.372;2022-11-18T06:30:37;7.40;99.90
14995;DHT22;7593;49.006;8.372;2022-11-18T06:33:04;7.40;99.90
14995;DHT22;7593;49.006;8.372;2022-11-18T06:35:31;7.40;99.90
14995;DHT22;7593;49.006;8.372;2022-11-18T06:37:58;7.40;99.90
14995;DHT22;7593;49.006;8.372;2022-11-18T06:40:25;7.40;99.90
14995;DHT22;7593;49.006;8.372;2022-11-18T06:42:52;7.40;99.90
14995;DHT22;7593;49.006;8.372;2022-11-18T06:45:38;7.40;99.90
14995;DHT22;7593;49.006;8.372;2022-11-18T06:48:25;7.50;99.90
14995;DHT22;7593;49.006;8.372;2022-11-18T06:50:52;7.50;99.90
14995;DHT22;7593;49.006;8.372;2022-11-18T06:53:18;7.50;99.90
14995;DHT22;7593;49.006;8.372;2022-11-18T06:55:45;7.50;99.90
14995;DHT22;7593;49.006;8.372;2022-11-18T06:58:12;7.50;99.90
14995;DHT22;7593;49.006;8.372;2022-11-18T07:00:40;7.50;99.90
14995;DHT22;7593;49.006;8.372;2022-11-18T07:03:07;7.50;99.90
14995;DHT22;7593;49.006;8.372;2022-11-18T07:05:33;7.50;99.90
14995;DHT22;7593;49.006;8.372;2022-11-18T07:08:00;7.50;99.90
14995;DHT22;7593;49.006;8.372;2022-11-18T07:10:27;7.50;99.90
14995;DHT22;7593;49.006;8.372;2022-11-18T07:12:54;7.50;99.90
14995;DHT22;7593;49.006;8.372;2022-11-18T07:15:21;7.50;99.90
14995;DHT22;7593;49.006;8.372;2022-11-18T07:17:49;7.50;99.90
14995;DHT22;7593;49.006;8.372;2022-11-18T07:20:15;7.50;99.90
14995;DHT22;7593;49.006;8.372;2022-11-18T07:22:42;7.60;99.90
14995;DHT22;7593;49.006;8.372;2022-11-18T07:25:09;7.60;99.90
14995;DHT22;7593;49.006;8.372;2022-11-18T07:27:36;7.60;99.90
14995;DHT22;7593;49.006;8.372;2022-11-18T07:30:03;7.60;99.90
14995;DHT22;7593;49.006;8.372;2022-11-18T07:32:31;7.60;99.90
14995;DHT22;7593;49.006;8.372;2022-11-18T07:34:59;7.60;99.90
14995;DHT22;7593;49.006;8.372;2022-11-18T07:37:26;7.70;99.90
14995;DHT22;7593;49.006;8.372;2022-11-18T07:39:53;7.70;99.90
14995;DHT22;7593;49.006;8.372;2022-11-18T07:42:20;7.70;99.90
14995;DHT22;7593;49.006;8.372;2022-11-18T07:44:48;7.70;99.90
14995;DHT22;7593;49.006;8.372;2022-11-18T07:47:14;7.70;99.90
14995;DHT22;7593;49.006;8.372;2022-11-18T07:49:41;7.70;99.90
14995;DHT22;7593;49.006;8.372;2022-11-18T07:52:10;7.70;99.90
14995;DHT22;7593;49.006;8.372;2022-11-18T07:54:36;7.70;99.90
14995;DHT22;7593;49.006;8.372;2022-11-18T07:57:03;7.80;99.90
14995;DHT22;7593;49.006;8.372;2022-11-18T07:59:30;7.70;99.90
14995;DHT22;7593;49.006;8.372;2022-11-18T08:01:57;7.80;99.90
14995;DHT22;7593;49.006;8.372;2022-11-18T08:04:24;7.80;99.90
14995;DHT22;7593;49.006;8.372;2022-11-18T08:06:51;7.80;99.90
14995;DHT22;7593;49.006;8.372;2022-11-18T08:09:19;7.80;99.90
14995;DHT22;7593;49.006;8.372;2022-11-18T08:11:46;7.90;99.90
14995;DHT22;7593;49.006;8.372;2022-11-18T08:14:13;7.90;99.90
14995;DHT22;7593;49.006;8.372;2022-11-18T08:16:39;7.90;99.90
14995;DHT22;7593;49.006;8.372;2022-11-18T08:19:06;7.90;99.90
14995;DHT22;7593;49.006;8.372;2022-11-18T08:21:33;7.90;99.90
14995;DHT22;7593;49.006;8.372;2022-11-18T08:24:00;7.90;99.90
14995;DHT22;7593;49.006;8.372;2022-11-18T08:26:28;7.90;99.90
14995;DHT22;7593;49.006;8.372;2022-11-18T08:28:56;7.90;99.90
14995;DHT22;7593;49.006;8.372;2022-11-18T08:31:24;7.90;99.90
14995;DHT22;7593;49.006;8.372;2022-11-18T08:33:54;8.00;99.90
14995;DHT22;7593;49.006;8.372;2022-11-18T08:36:23;8.00;99.90
14995;DHT22;7593;49.006;8.372;2022-11-18T08:38:50;8.00;99.90
14995;DHT22;7593;49.006;8.372;2022-11-18T08:41:20;8.00;99.90
14995;DHT22;7593;49.006;8.372;2022-11-18T08:43:50;8.00;99.90
14995;DHT22;7593;49.006;8.372;2022-11-18T08:46:17;8.10;99.90
14995;DHT22;7593;49.006;8.372;2022-11-18T08:48:44;8.10;99.90
14995;DHT22;7593;49.006;8.372;2022-11-18T08:51:12;8.10;99.90
14995;DHT22;7593;49.006;8.372;2022-11-18T08:53:40;8.10;99.90
14995;DHT22;7593;49.006;8.372;2022-11-18T08:56:12;8.10;99.90
14995;DHT22;7593;49.006;8.372;2022-11-18T08:58:40;8.20;99.90
14995;DHT22;7593;49.006;8.372;2022-11-18T09:01:08;8.20;99.90
14995;DHT22;7593;49.006;8.372;2022-11-18T09:03:36;8.20;99.90
14995;DHT22;7593;49.006;8.372;2022-11-18T09:06:06;8.20;99.90
14995;DHT22;7593;49.006;8.372;2022-11-18T09:08:33;8.20;99.90
14995;DHT22;7593;49.006;8.372;2022-11-18T09:11:04;8.20;99.90
14995;DHT22;7593;49.006;8.372;2022-11-18T09:13:31;8.20;99.90
14995;DHT22;7593;49.006;8.372;2022-11-18T09:15:58;8.20;99.90
14995;DHT22;7593;49.006;8.372;2022-11-18T09:18:27;8.20;99.90
14995;DHT22;7593;49.006;8.372;2022-11-18T09:20:54;8.30;99.90
14995;DHT22;7593;49.006;8.372;2022-11-18T09:23:21;8.30;99.90
14995;DHT22;7593;49.006;8.372;2022-11-18T09:25:48;8.30;99.90
14995;DHT22;7593;49.006;8.372;2022-11-18T09:28:15;8.30;99.90
14995;DHT22;7593;49.006;8.372;2022-11-18T09:30:41;8.30;99.90
14995;DHT22;7593;49.006;8.372;2022-11-18T09:33:08;8.40;99.90
14995;DHT22;7593;49.006;8.372;2022-11-18T09:35:40;8.40;99.90
14995;DHT22;7593;49.006;8.372;2022-11-18T09:38:07;8.40;99.90
14995;DHT22;7593;49.006;8.372;2022-11-18T09:40:41;8.40;99.90
14995;DHT22;7593;49.006;8.372;2022-11-18T09:43:15;8.40;99.90
14995;DHT22;7593;49.006;8.372;2022-11-18T09:45:50;8.50;99.90
14995;DHT22;7593;49.006;8.372;2022-11-18T09:48:20;8.50;99.90
14995;DHT22;7593;49.006;8.372;2022-11-18T09:51:10;8.50;99.90
14995;DHT22;7593;49.006;8.372;2022-11-18T09:53:39;8.60;99.90
14995;DHT22;7593;49.006;8.372;2022-11-18T09:56:12;8.60;99.90
14995;DHT22;7593;49.006;8.372;2022-11-18T09:58:40;8.60;99.90
14995;DHT22;7593;49.006;8.372;2022-11-18T10:01:11;8.60;99.90
14995;DHT22;7593;49.006;8.372;2022-11-18T10:03:39;8.60;99.90
14995;DHT22;7593;49.006;8.372;2022-11-18T10:06:17;8.70;99.90
14995;DHT22;7593;49.006;8.372;2022-11-18T10:08:58;8.70;99.90
14995;DHT22;7593;49.006;8.372;2022-11-18T10:11:30;8.70;99.90
14995;DHT22;7593;49.006;8.372;2022-11-18T10:14:10;8.70;99.90
14995;DHT22;7593;49.006;8.372;2022-11-18T10:16:43;8.70;99.90
14995;DHT22;7593;49.006;8.372;2022-11-18T10:19:22;8.80;99.90
14995;DHT22;7593;49.006;8.372;2022-11-18T10:21:59;8.80;99.90
14995;DHT22;7593;49.006;8.372;2022-11-18T10:24:32;8.80;99.90
14995;DHT22;7593;49.006;8.372;2022-11-18T10:27:06;8.90;99.90
14995;DHT22;7593;49.006;8.372;2022-11-18T10:29:34;9.00;99.90
14995;DHT22;7593;49.006;8.372;2022-11-18T10:32:02;9.00;99.90
14995;DHT22;7593;49.006;8.372;2022-11-18T10:34:30;9.10;99.90
14995;DHT22;7593;49.006;8.372;2022-11-18T10:37:03;9.10;99.90
14995;DHT22;7593;49.006;8.372;2022-11-18T10:39:30;9.20;99.90
14995;DHT22;7593;49.006;8.372;2022-11-18T10:42:00;9.30;99.90
14995;DHT22;7593;49.006;8.372;2022-11-18T10:44:40;9.30;99.90
14995;DHT22;7593;49.006;8.372;2022-11-18T10:47:23;9.30;99.90
14995;DHT22;7593;49.006;8.372;2022-11-18T10:49:50;9.40;99.90
14995;DHT22;7593;49.006;8.372;2022-11-18T10:52:19;9.30;99.90
14995;DHT22;7593;49.006;8.372;2022-11-18T10:55:05;9.40;99.90
14995;DHT22;7593;49.006;8.372;2022-11-18T10:57:34;9.30;99.90
14995;DHT22;7593;49.006;8.372;2022-11-18T11:00:04;9.40;99.90
14995;DHT22;7593;49.006;8.372;2022-11-18T11:02:38;9.40;99.90
14995;DHT22;7593;49.006;8.372;2022-11-18T11:05:16;9.40;99.90
14995;DHT22;7593;49.006;8.372;2022-11-18T11:08:00;9.40;99.90
14995;DHT22;7593;49.006;8.372;2022-11-18T11:10:28;9.50;99.90
14995;DHT22;7593;49.006;8.372;2022-11-18T11:12:57;9.60;99.90
14995;DHT22;7593;49.006;8.372;2022-11-18T11:15:35;9.70;99.90
14995;DHT22;7593;49.006;8.372;2022-11-18T11:18:05;9.70;99.90
14995;DHT22;7593;49.006;8.372;2022-11-18T11:20:53;9.70;99.90
14995;DHT22;7593;49.006;8.372;2022-11-18T11:23:24;9.70;99.90
14995;DHT22;7593;49.006;8.372;2022-11-18T11:25:55;9.70;99.90
14995;DHT22;7593;49.006;8.372;2022-11-18T11:28:28;9.70;99.90
14995;DHT22;7593;49.006;8.372;2022-11-18T11:31:04;9.70;99.90
14995;DHT22;7593;49.006;8.372;2022-11-18T11:33:38;9.70;99.90
14995;DHT22;7593;49.006;8.372;2022-11-18T11:36:15;9.70;99.90
14995;DHT22;7593;49.006;8.372;2022-11-18T11:38:56;9.70;99.90
14995;DHT22;7593;49.006;8.372;2022-11-18T11:41:29;9.70;99.90
14995;DHT22;7593;49.006;8.372;2022-11-18T11:44:13;9.80;99.90
14995;DHT22;7593;49.006;8.372;2022-11-18T11:46:49;9.80;99.90
14995;DHT22;7593;49.006;8.372;2022-11-18T11:49:42;9.80;99.90
14995;DHT22;7593;49.006;8.372;2022-11-18T11:52:20;9.70;99.90
14995;DHT22;7593;49.006;8.372;2022-11-18T11:54:55;9.70;99.90
14995;DHT22;7593;49.006;8.372;2022-11-18T11:57:34;9.60;99.90
14995;DHT22;7593;49.006;8.372;2022-11-18T12:00:09;9.60;99.90
14995;DHT22;7593;49.006;8.372;2022-11-18T12:02:59;9.60;99.90
14995;DHT22;7593;49.006;8.372;2022-11-18T12:05:30;9.60;99.90
14995;DHT22;7593;49.006;8.372;2022-11-18T12:08:00;9.60;99.90
14995;DHT22;7593;49.006;8.372;2022-11-18T12:10:37;9.60;99.90
14995;DHT22;7593;49.006;8.372;2022-11-18T12:13:17;9.60;99.90
14995;DHT22;7593;49.006;8.372;2022-11-18T12:15:57;9.60;99.90
14995;DHT22;7593;49.006;8.372;2022-11-18T12:18:36;9.60;99.90
14995;DHT22;7593;49.006;8.372;2022-11-18T12:21:04;9.70;99.90
14995;DHT22;7593;49.006;8.372;2022-11-18T12:23:32;9.70;99.90
14995;DHT22;7593;49.006;8.372;2022-11-18T12:26:11;9.70;99.90
14995;DHT22;7593;49.006;8.372;2022-11-18T12:29:20;9.70;99.90
14995;DHT22;7593;49.006;8.372;2022-11-18T12:31:48;9.90;99.90
14995;DHT22;7593;49.006;8.372;2022-11-18T12:34:36;10.00;99.90
14995;DHT22;7593;49.006;8.372;2022-11-18T12:42:54;10.40;99.90
14995;DHT22;7593;49.006;8.372;2022-11-18T12:45:56;10.40;99.90
14995;DHT22;7593;49.006;8.372;2022-11-18T12:48:44;10.40;99.90
14995;DHT22;7593;49.006;8.372;2022-11-18T12:54:32;10.20;99.90
14995;DHT22;7593;49.006;8.372;2022-11-18T12:57:02;10.10;99.90
14995;DHT22;7593;49.006;8.372;2022-11-18T12:59:33;10.10;99.90
14995;DHT22;7593;49.006;8.372;2022-11-18T13:02:04;10.10;99.90
14995;DHT22;7593;49.006;8.372;2022-11-18T13:04:31;10.00;99.90
14995;DHT22;7593;49.006;8.372;2022-11-18T13:06:58;9.90;99.90
14995;DHT22;7593;49.006;8.372;2022-11-18T13:09:29;9.80;99.90
14995;DHT22;7593;49.006;8.372;2022-11-18T13:11:59;9.80;99.90
14995;DHT22;7593;49.006;8.372;2022-11-18T13:14:28;9.80;99.90
14995;DHT22;7593;49.006;8.372;2022-11-18T13:17:25;9.80;99.90
14995;DHT22;7593;49.006;8.372;2022-11-18T13:20:25;9.80;99.90
14995;DHT22;7593;49.006;8.372;2022-11-18T13:22:56;9.80;99.90
14995;DHT22;7593;49.006;8.372;2022-11-18T13:25:42;9.80;99.90
14995;DHT22;7593;49.006;8.372;2022-11-18T13:28:20;9.80;99.90
14995;DHT22;7593;49.006;8.372;2022-11-18T13:30:53;10.00;99.90
14995;DHT22;7593;49.006;8.372;2022-11-18T13:33:23;10.20;99.90
14995;DHT22;7593;49.006;8.372;2022-11-18T13:35:52;10.20;99.90
14995;DHT22;7593;49.006;8.372;2022-11-18T13:38:21;10.20;99.90
14995;DHT22;7593;49.006;8.372;2022-11-18T13:40:51;10.10;99.90
14995;DHT22;7593;49.006;8.372;2022-11-18T13:43:32;10.10;99.90
14995;DHT22;7593;49.006;8.372;2022-11-18T13:46:02;9.90;99.90
14995;DHT22;7593;49.006;8.372;2022-11-18T13:48:32;9.90;99.90
14995;DHT22;7593;49.006;8.372;2022-11-18T13:51:01;9.90;99.90
14995;DHT22;7593;49.006;8.372;2022-11-18T13:53:29;9.90;99.90
14995;DHT22;7593;49.006;8.372;2022-11-18T13:55:59;9.90;99.90
14995;DHT22;7593;49.006;8.372;2022-11-18T13:58:37;9.80;99.90
14995;DHT22;7593;49.006;8.372;2022-11-18T14:01:12;9.80;99.90
14995;DHT22;7593;49.006;8.372;2022-11-18T14:03:48;9.80;99.90
14995;DHT22;7593;49.006;8.372;2022-11-18T14:06:30;9.90;99.90
14995;DHT22;7593;49.006;8.372;2022-11-18T14:09:05;9.90;99.90
14995;DHT22;7593;49.006;8.372;2022-11-18T14:11:34;9.90;99.90
14995;DHT22;7593;49.006;8.372;2022-11-18T14:14:01;9.90;99.90
14995;DHT22;7593;49.006;8.372;2022-11-18T14:16:33;9.90;99.90
14995;DHT22;7593;49.006;8.372;2022-11-18T14:19:02;9.90;99.90
14995;DHT22;7593;49.006;8.372;2022-11-18T14:21:30;9.90;99.90
14995;DHT22;7593;49.006;8.372;2022-11-18T14:23:58;9.80;99.90
14995;DHT22;7593;49.006;8.372;2022-11-18T14:26:26;9.90;99.90
14995;DHT22;7593;49.006;8.372;2022-11-18T14:28:54;9.80;99.90
14995;DHT22;7593;49.006;8.372;2022-11-18T14:31:23;9.70;99.90
14995;DHT22;7593;49.006;8.372;2022-11-18T14:34:14;9.60;99.90
14995;DHT22;7593;49.006;8.372;2022-11-18T14:36:41;9.60;99.90
14995;DHT22;7593;49.006;8.372;2022-11-18T14:39:12;9.60;99.90
14995;DHT22;7593;49.006;8.372;2022-11-18T14:41:39;9.60;99.90
14995;DHT22;7593;49.006;8.372;2022-11-18T14:44:15;9.50;99.90
14995;DHT22;7593;49.006;8.372;2022-11-18T14:46:44;9.50;99.90
14995;DHT22;7593;49.006;8.372;2022-11-18T14:49:15;9.40;99.90
14995;DHT22;7593;49.006;8.372;2022-11-18T14:51:42;9.40;99.90
14995;DHT22;7593;49.006;8.372;2022-11-18T14:54:11;9.40;99.90
14995;DHT22;7593;49.006;8.372;2022-11-18T14:56:39;9.40;99.90
14995;DHT22;7593;49.006;8.372;2022-11-18T14:59:08;9.30;99.90
14995;DHT22;7593;49.006;8.372;2022-11-18T15:01:35;9.30;99.90
14995;DHT22;7593;49.006;8.372;2022-11-18T15:04:02;9.30;99.90
14995;DHT22;7593;49.006;8.372;2022-11-18T15:06:31;9.20;99.90
14995;DHT22;7593;49.006;8.372;2022-11-18T15:08:58;9.20;99.90
14995;DHT22;7593;49.006;8.372;2022-11-18T15:11:25;9.20;99.90
14995;DHT22;7593;49.006;8.372;2022-11-18T15:13:55;9.20;99.90
14995;DHT22;7593;49.006;8.372;2022-11-18T15:16:23;9.20;99.90
14995;DHT22;7593;49.006;8.372;2022-11-18T15:18:53;9.30;99.90
14995;DHT22;7593;49.006;8.372;2022-11-18T15:21:20;9.20;99.90
14995;DHT22;7593;49.006;8.372;2022-11-18T15:23:48;9.20;99.90
14995;DHT22;7593;49.006;8.372;2022-11-18T15:26:18;9.20;99.90
14995;DHT22;7593;49.006;8.372;2022-11-18T15:28:46;9.10;99.90
14995;DHT22;7593;49.006;8.372;2022-11-18T15:31:13;9.10;99.90
14995;DHT22;7593;49.006;8.372;2022-11-18T15:33:40;9.10;99.90
14995;DHT22;7593;49.006;8.372;2022-11-18T15:36:10;9.10;99.90
14995;DHT22;7593;49.006;8.372;2022-11-18T15:38:38;9.10;99.90
14995;DHT22;7593;49.006;8.372;2022-11-18T15:41:14;9.10;99.90
14995;DHT22;7593;49.006;8.372;2022-11-18T15:43:41;9.10;99.90
14995;DHT22;7593;49.006;8.372;2022-11-18T15:46:08;9.10;99.90
14995;DHT22;7593;49.006;8.372;2022-11-18T15:48:35;9.00;99.90
14995;DHT22;7593;49.006;8.372;2022-11-18T15:51:02;9.00;99.90
14995;DHT22;7593;49.006;8.372;2022-11-18T15:53:28;9.10;99.90
14995;DHT22;7593;49.006;8.372;2022-11-18T15:56:15;9.10;99.90
14995;DHT22;7593;49.006;8.372;2022-11-18T15:58:42;9.00;99.90
14995;DHT22;7593;49.006;8.372;2022-11-18T16:01:08;9.00;99.90
14995;DHT22;7593;49.006;8.372;2022-11-18T16:03:36;9.00;99.90
14995;DHT22;7593;49.006;8.372;2022-11-18T16:06:03;9.00;99.90
14995;DHT22;7593;49.006;8.372;2022-11-18T16:08:30;9.00;99.90
14995;DHT22;7593;49.006;8.372;2022-11-18T16:10:57;9.00;99.90
14995;DHT22;7593;49.006;8.372;2022-11-18T16:13:44;8.90;99.90
14995;DHT22;7593;49.006;8.372;2022-11-18T16:16:17;8.90;99.90
14995;DHT22;7593;49.006;8.372;2022-11-18T16:18:44;8.90;99.90
14995;DHT22;7593;49.006;8.372;2022-11-18T16:21:11;9.00;99.90
14995;DHT22;7593;49.006;8.372;2022-11-18T16:23:38;8.90;99.90
14995;DHT22;7593;49.006;8.372;2022-11-18T16:26:40;8.90;99.90
14995;DHT22;7593;49.006;8.372;2022-11-18T16:29:09;8.90;99.90
14995;DHT22;7593;49.006;8.372;2022-11-18T16:31:36;8.90;99.90
14995;DHT22;7593;49.006;8.372;2022-11-18T16:34:06;8.90;99.90
14995;DHT22;7593;49.006;8.372;2022-11-18T16:36:33;8.90;99.90
14995;DHT22;7593;49.006;8.372;2022-11-18T16:39:05;8.90;99.90